Lawton, OK (73501)

2:50 AM CDT on September 26, 2016 (GMT -0500)
Lawton Heights | | Change Station

Elev 1198 ft 34.63 °N, 98.41 °W | Updated 1 second ago

Mostly Cloudy
Mostly Cloudy
64.0 °F
Feels Like 64.0 °F
N
3.6
Wind Variable Wind from NE
Gusts 4.9 mph

Today
High -- | Low -- °F
--% Chance of Precip.
Yesterday
High -- | Low -- °F
Precip. -- in
Pressure 30.20 in
Visibility 10.0 miles
Clouds Mostly Cloudy 14000 ft
Dew Point 56 °F
Humidity 74%
Rainfall 0.00 in
Snow Depth Not available.
7:24 AM 7:23 PM
Waning Crescent, 21% visible
METAR KFSI 260658Z AUTO 02010KT 10SM BKN140 18/11 A3021 RMK AO2 SLP225 T01750105 $
Pressure 30.20 in
Visibility 10.0 miles
Clouds Mostly Cloudy 14000 ft
Dew Point 56 °F
Humidity 74%
Rainfall 0.00 in
Snow Depth Not available.
7:24 AM 7:23 PM
Waning Crescent, 21% visible
METAR KFSI 260658Z AUTO 02010KT 10SM BKN140 18/11 A3021 RMK AO2 SLP225 T01750105 $

10-Day Weather Forecast

Almanac

Astronomy

Sep. 26, 2016 Rise Set
Actual Time
Civil Twilight
Nautical Twilight
Astronomical Twilight
Moon
Length of Visible Light
Length of Day
Tomorrow will be .
, % of the Moon is Illuminated

Today's Extremes

State Highs State Lows

Community

WunderPhotos

Upload Photos

1,941,853 photos uploaded!

WunderBlog® & News

Nearby

Air Quality

  Air Quality AQ Index Pollutant
Not available.

Snow Depth

Station Depth Elevation

Earthquake Activity

City Distance Mag. Time & Date
Minimum magnitude displayed is 2.5.

Coastal Water Temperatures

Place Temperature

Stations

Nearby Weather Stations

Station Location Temp. Windchill Dew Point Humidity Wind Precip. Elev Updated Type
                   

Watches & Warnings

There are currently no watches in effect.